createdAt,value
2022-07-28T00:00:17.678Z,94919.66
2022-07-28T00:03:27.478Z,94922.88
2022-07-28T00:06:35.987Z,94923.03
2022-07-28T00:09:45.609Z,94916.94
2022-07-28T00:12:56.843Z,94923.75
2022-07-28T00:16:07.319Z,94917.94
2022-07-28T00:19:15.815Z,94915.25
2022-07-28T00:22:24.487Z,94910.91
2022-07-28T00:25:34.330Z,94903.38
2022-07-28T00:28:42.761Z,94905.63
2022-07-28T00:31:53.818Z,94900.69
2022-07-28T00:35:02.566Z,94894.00
2022-07-28T00:38:11.064Z,94887.47
2022-07-28T00:41:23.024Z,94890.66
2022-07-28T00:44:31.464Z,94883.97
2022-07-28T00:47:39.986Z,94879.19
2022-07-28T00:50:48.789Z,94880.53
2022-07-28T00:53:58.495Z,94886.97
2022-07-28T00:57:08.212Z,94880.31
2022-07-28T01:00:17.551Z,94876.66
2022-07-28T01:03:27.223Z,94868.56
2022-07-28T01:06:58.687Z,94867.53
2022-07-28T01:10:14.834Z,94865.84
2022-07-28T01:13:36.618Z,94861.88
2022-07-28T01:16:55.190Z,94863.53
2022-07-28T01:20:12.789Z,94856.22
2022-07-28T01:24:09.053Z,94851.59
2022-07-28T01:27:45.425Z,94852.84
2022-07-28T01:31:00.204Z,94856.28
2022-07-28T01:34:14.753Z,94855.94
2022-07-28T01:37:30.315Z,94848.34
2022-07-28T01:40:43.786Z,94847.50
2022-07-28T01:44:00.700Z,94840.91
2022-07-28T01:47:12.458Z,94834.81
2022-07-28T01:50:26.028Z,94828.69
2022-07-28T01:53:37.629Z,94831.06
2022-07-28T01:56:50.582Z,94832.63
2022-07-28T02:00:01.405Z,94834.72
2022-07-28T02:03:13.357Z,94830.84
2022-07-28T02:06:24.944Z,94835.84
2022-07-28T02:09:36.098Z,94829.56
2022-07-28T02:12:47.641Z,94838.50
2022-07-28T02:15:59.614Z,94830.69
2022-07-28T02:19:10.657Z,94826.91
2022-07-28T02:22:22.834Z,94822.00
2022-07-28T02:25:31.874Z,94820.16
2022-07-28T02:28:43.732Z,94824.84
2022-07-28T02:31:58.678Z,94821.59
2022-07-28T02:35:18.414Z,94813.78
2022-07-28T02:38:32.198Z,94809.25
2022-07-28T02:41:43.428Z,94813.81
2022-07-28T02:45:01.118Z,94814.00
2022-07-28T02:48:18.949Z,94817.53
2022-07-28T02:51:32.699Z,94825.69
2022-07-28T02:54:43.809Z,94823.19
2022-07-28T02:57:56.818Z,94827.75
2022-07-28T03:01:05.739Z,94816.75
2022-07-28T03:04:16.156Z,94820.53
2022-07-28T03:07:26.923Z,94817.09
2022-07-28T03:10:35.155Z,94822.56
2022-07-28T03:13:43.712Z,94823.34
2022-07-28T03:16:55.494Z,94824.25
2022-07-28T03:20:04.358Z,94822.56
2022-07-28T03:23:14.928Z,94834.34
2022-07-28T03:26:34.104Z,94831.09
2022-07-28T03:29:47.050Z,94836.84
2022-07-28T03:33:01.673Z,94835.50
2022-07-28T03:36:17.051Z,94841.06
2022-07-28T03:39:32.999Z,94837.88
2022-07-28T03:42:44.765Z,94831.63
2022-07-28T03:45:53.381Z,94831.78
2022-07-28T03:49:02.087Z,94829.13
2022-07-28T03:52:10.683Z,94826.03
2022-07-28T03:55:21.127Z,94830.50
2022-07-28T03:58:30.020Z,94831.69
2022-07-28T04:01:38.390Z,94842.34
2022-07-28T04:04:46.745Z,94837.13
2022-07-28T04:07:55.053Z,94834.81
2022-07-28T04:11:05.648Z,94829.03
2022-07-28T04:14:16.929Z,94838.09
2022-07-28T04:17:26.005Z,94834.44
2022-07-28T04:20:35.221Z,94831.97
2022-07-28T04:23:43.671Z,94839.66
2022-07-28T04:26:53.568Z,94839.00
2022-07-28T04:30:02.467Z,94833.16
2022-07-28T04:33:12.131Z,94841.09
2022-07-28T04:36:20.895Z,94838.84
2022-07-28T04:39:29.557Z,94844.63
2022-07-28T04:42:40.746Z,94838.34
2022-07-28T04:45:53.790Z,94845.16
2022-07-28T04:49:04.103Z,94848.22
2022-07-28T04:52:13.974Z,94847.50
2022-07-28T04:55:22.255Z,94838.13
2022-07-28T04:58:32.107Z,94843.28
2022-07-28T05:01:43.158Z,94850.63
2022-07-28T05:04:52.549Z,94843.06
2022-07-28T05:08:01.320Z,94844.59
2022-07-28T05:11:11.881Z,94850.34
2022-07-28T05:14:21.942Z,94855.69
2022-07-28T05:17:32.241Z,94848.28
2022-07-28T05:20:41.557Z,94837.75
2022-07-28T05:23:50.124Z,94843.63
2022-07-28T05:26:59.690Z,94838.28
2022-07-28T05:30:12.336Z,94835.31
2022-07-28T05:33:20.711Z,94845.50
2022-07-28T05:36:29.550Z,94843.41
2022-07-28T05:39:38.483Z,94850.69
2022-07-28T05:42:48.959Z,94850.59
2022-07-28T05:45:58.910Z,94847.28
2022-07-28T05:49:07.724Z,94846.28
2022-07-28T05:52:17.594Z,94856.28
2022-07-28T05:55:26.702Z,94851.34
2022-07-28T05:58:35.035Z,94862.56
2022-07-28T06:01:46.068Z,94865.25
2022-07-28T06:04:55.522Z,94869.47
2022-07-28T06:08:04.275Z,94865.25
2022-07-28T06:11:17.964Z,94860.69
2022-07-28T06:14:30.873Z,94863.78
2022-07-28T06:17:40.830Z,94872.22
2022-07-28T06:20:50.270Z,94868.38
2022-07-28T06:23:59.087Z,94866.47
2022-07-28T06:27:08.333Z,94872.97
2022-07-28T06:30:18.031Z,94867.22
2022-07-28T06:33:31.880Z,94877.97
2022-07-28T06:36:40.724Z,94871.13
2022-07-28T06:39:49.441Z,94879.56
2022-07-28T06:42:57.643Z,94873.66
2022-07-28T06:46:06.072Z,94870.09
2022-07-28T06:49:16.484Z,94867.31
2022-07-28T06:52:25.689Z,94868.16
2022-07-28T06:55:36.095Z,94870.44
2022-07-28T06:58:47.358Z,94866.94
2022-07-28T07:01:55.972Z,94863.56
2022-07-28T07:05:06.555Z,94865.97
2022-07-28T07:08:15.078Z,94864.97
2022-07-28T07:11:23.624Z,94869.13
2022-07-28T07:14:31.993Z,94860.69
2022-07-28T07:17:42.037Z,94859.09
2022-07-28T07:20:52.359Z,94855.31
2022-07-28T07:24:00.890Z,94853.91
2022-07-28T07:27:09.161Z,94846.88
2022-07-28T07:30:18.151Z,94840.53
2022-07-28T07:33:26.632Z,94834.25
2022-07-28T07:36:36.521Z,94839.31
2022-07-28T07:39:44.772Z,94830.53
2022-07-28T07:42:53.936Z,94831.44
2022-07-28T07:46:02.494Z,94818.59
2022-07-28T07:49:11.478Z,94829.81
2022-07-28T07:52:21.486Z,94822.69
2022-07-28T07:55:34.438Z,94831.16
2022-07-28T07:58:53.624Z,94818.94
2022-07-28T08:02:05.795Z,94825.19
2022-07-28T08:05:14.628Z,94828.50
2022-07-28T08:08:25.608Z,94826.03
2022-07-28T08:11:34.104Z,94821.88
2022-07-28T08:14:42.371Z,94819.19
2022-07-28T08:17:56.377Z,94822.69
2022-07-28T08:21:05.135Z,94823.81
2022-07-28T08:24:32.537Z,94818.66
2022-07-28T08:27:41.660Z,94830.72
2022-07-28T08:30:52.130Z,94824.03
2022-07-28T08:34:01.610Z,94824.81
2022-07-28T08:37:09.854Z,94823.44
2022-07-28T08:40:20.377Z,94827.09
2022-07-28T08:43:36.357Z,94828.38
2022-07-28T08:46:48.612Z,94824.50
2022-07-28T08:50:00.510Z,94827.66
2022-07-28T08:53:10.324Z,94822.59
2022-07-28T08:56:21.894Z,94819.75
2022-07-28T08:59:31.857Z,94825.47
2022-07-28T09:02:45.807Z,94822.53
2022-07-28T09:05:54.960Z,94821.03
2022-07-28T09:09:04.912Z,94814.56
2022-07-28T09:12:14.615Z,94826.13
2022-07-28T09:15:23.170Z,94832.63
2022-07-28T09:18:31.686Z,94824.19
2022-07-28T09:21:40.604Z,94820.59
2022-07-28T09:24:50.313Z,94828.13
2022-07-28T09:28:08.637Z,94823.38
2022-07-28T09:31:18.509Z,94823.06
2022-07-28T09:34:27.129Z,94813.09
2022-07-28T09:37:35.642Z,94809.88
2022-07-28T09:40:57.270Z,94813.63
2022-07-28T09:44:20.252Z,94812.22
2022-07-28T09:47:33.130Z,94807.28
2022-07-28T09:50:43.290Z,94803.06
2022-07-28T09:53:52.769Z,94805.06
2022-07-28T09:57:01.244Z,94803.81
2022-07-28T10:00:13.381Z,94803.66
2022-07-28T10:03:28.928Z,94807.03
2022-07-28T10:06:40.753Z,94796.69
2022-07-28T10:09:59.755Z,94810.69
2022-07-28T10:13:08.498Z,94794.78
2022-07-28T10:16:19.024Z,94808.84
2022-07-28T10:19:27.676Z,94800.31
2022-07-28T10:22:43.380Z,94806.03
2022-07-28T10:25:54.528Z,94803.66
2022-07-28T10:29:08.522Z,94801.50
2022-07-28T10:32:18.382Z,94792.72
2022-07-28T10:35:28.542Z,94784.31
2022-07-28T10:38:38.196Z,94794.91
2022-07-28T10:41:47.457Z,94785.19
2022-07-28T10:44:56.952Z,94778.78
2022-07-28T10:48:09.949Z,94786.16
2022-07-28T10:51:21.880Z,94780.56
2022-07-28T10:54:46.431Z,94787.78
2022-07-28T10:58:15.481Z,94786.94
2022-07-28T11:01:51.906Z,94786.94
2022-07-28T11:05:03.598Z,94781.91
2022-07-28T11:08:31.511Z,94785.19
2022-07-28T11:11:50.140Z,94782.22
2022-07-28T11:14:59.811Z,94781.69
2022-07-28T11:18:27.232Z,94778.88
2022-07-28T11:21:39.663Z,94784.16
2022-07-28T11:25:18.906Z,94787.97
2022-07-28T11:28:30.943Z,94782.22
2022-07-28T11:32:00.423Z,94778.75
2022-07-28T11:35:11.376Z,94778.41
2022-07-28T11:38:22.409Z,94776.06
2022-07-28T11:41:32.142Z,94773.81
2022-07-28T11:44:43.043Z,94777.72
2022-07-28T11:48:15.555Z,94784.03
2022-07-28T11:51:25.055Z,94770.66
2022-07-28T11:54:38.045Z,94770.00
2022-07-28T11:57:52.009Z,94776.75
2022-07-28T12:01:17.808Z,94772.53
2022-07-28T12:04:28.582Z,94777.78
2022-07-28T12:07:47.196Z,94771.31
2022-07-28T12:10:58.006Z,94770.34
2022-07-28T12:14:09.570Z,94757.91
2022-07-28T12:17:17.874Z,94757.09
2022-07-28T12:20:31.718Z,94758.72
2022-07-28T12:23:45.988Z,94744.78
2022-07-28T12:27:00.811Z,94749.97
2022-07-28T12:30:12.917Z,94741.56
2022-07-28T12:33:29.028Z,94739.84
2022-07-28T12:36:39.718Z,94746.53
2022-07-28T12:39:52.930Z,94742.00
2022-07-28T12:43:03.888Z,94738.91
2022-07-28T12:46:12.179Z,94735.31
2022-07-28T12:49:24.309Z,94740.22
2022-07-28T12:52:32.619Z,94733.28
2022-07-28T12:55:44.319Z,94732.53
2022-07-28T12:59:07.424Z,94734.56
2022-07-28T13:02:16.994Z,94733.69
2022-07-28T13:05:55.164Z,94727.38
2022-07-28T13:09:03.955Z,94733.34
2022-07-28T13:12:20.775Z,94727.56
2022-07-28T13:15:31.804Z,94723.44
2022-07-28T13:18:42.347Z,94726.91
2022-07-28T13:22:00.763Z,94718.72
2022-07-28T13:25:15.001Z,94721.22
2022-07-28T13:28:28.417Z,94722.66
2022-07-28T13:31:39.320Z,94710.91
2022-07-28T13:34:48.214Z,94708.28
2022-07-28T13:37:57.646Z,94699.56
2022-07-28T13:41:06.651Z,94712.22
2022-07-28T13:44:15.960Z,94711.31
2022-07-28T13:47:35.611Z,94706.06
2022-07-28T13:50:47.882Z,94704.44
2022-07-28T13:53:57.786Z,94701.63
2022-07-28T13:57:06.885Z,94706.44
2022-07-28T14:00:17.905Z,94698.47
2022-07-28T14:03:30.332Z,94697.53
2022-07-28T14:06:59.014Z,94689.41
2022-07-28T14:10:09.199Z,94686.31
2022-07-28T14:13:18.714Z,94680.94
2022-07-28T14:16:27.149Z,94687.06
2022-07-28T14:19:39.540Z,94681.34
2022-07-28T14:22:48.123Z,94683.31
2022-07-28T14:26:18.463Z,94675.31
2022-07-28T14:29:28.177Z,94670.63
2022-07-28T14:32:38.847Z,94675.78
2022-07-28T14:35:48.807Z,94671.09
2022-07-28T14:38:57.061Z,94674.50
2022-07-28T14:42:06.101Z,94662.69
2022-07-28T14:45:14.857Z,94666.47
2022-07-28T14:48:23.095Z,94649.13
2022-07-28T14:51:33.497Z,94656.31
2022-07-28T14:54:45.130Z,94665.88
2022-07-28T14:57:55.036Z,94661.84
2022-07-28T15:01:03.740Z,94661.06
2022-07-28T15:04:13.883Z,94658.59
2022-07-28T15:07:24.515Z,94650.84
2022-07-28T15:10:32.856Z,94655.50
2022-07-28T15:13:41.104Z,94646.00
2022-07-28T15:16:49.588Z,94651.41
2022-07-28T15:19:57.809Z,94657.19
2022-07-28T15:23:09.033Z,94656.22
2022-07-28T15:26:17.435Z,94650.78
2022-07-28T15:29:25.747Z,94654.69
2022-07-28T15:32:56.338Z,94657.00
2022-07-28T15:36:06.928Z,94644.88
2022-07-28T15:39:17.193Z,94637.09
2022-07-28T15:42:25.720Z,94639.63
2022-07-28T15:45:34.204Z,94641.78
2022-07-28T15:48:45.794Z,94649.69
2022-07-28T15:51:54.269Z,94642.97
2022-07-28T15:55:09.602Z,94647.66
2022-07-28T15:58:17.930Z,94639.16
2022-07-28T16:01:27.795Z,94639.97
2022-07-28T16:04:36.382Z,94634.28
2022-07-28T16:08:00.321Z,94635.69
2022-07-28T16:11:11.633Z,94640.06
2022-07-28T16:14:20.204Z,94637.16
2022-07-28T16:17:28.639Z,94634.00
2022-07-28T16:20:37.108Z,94639.84
2022-07-28T16:23:45.386Z,94648.13
2022-07-28T16:26:56.019Z,94641.03
2022-07-28T16:30:05.561Z,94644.41
2022-07-28T16:33:13.958Z,94644.91
2022-07-28T16:36:22.471Z,94650.16
2022-07-28T16:39:30.921Z,94655.75
2022-07-28T16:42:40.798Z,94655.72
2022-07-28T16:45:49.023Z,94654.69
2022-07-28T16:48:57.343Z,94649.06
2022-07-28T16:52:06.324Z,94648.66
2022-07-28T16:55:17.840Z,94643.19
2022-07-28T16:58:30.257Z,94642.47
2022-07-28T17:01:43.533Z,94648.09
2022-07-28T17:04:53.958Z,94642.97
2022-07-28T17:08:04.800Z,94651.09
2022-07-28T17:11:17.171Z,94656.09
2022-07-28T17:14:27.077Z,94664.16
2022-07-28T17:17:36.168Z,94662.13
2022-07-28T17:20:44.497Z,94658.00
2022-07-28T17:23:53.028Z,94655.03
2022-07-28T17:30:33.044Z,94644.78
2022-07-28T17:33:41.381Z,94651.06
2022-07-28T17:36:50.426Z,94657.09
2022-07-28T17:40:00.994Z,94660.63
2022-07-28T17:43:15.197Z,94661.41
2022-07-28T17:46:26.624Z,94667.91
2022-07-28T17:49:35.506Z,94665.00
2022-07-28T17:52:44.987Z,94676.09
2022-07-28T17:56:00.550Z,94691.56
2022-07-28T17:59:09.950Z,94691.72
2022-07-28T18:02:20.028Z,94685.75
2022-07-28T18:05:28.467Z,94697.31
2022-07-28T18:08:39.461Z,94709.72
2022-07-28T18:11:57.165Z,94713.13
2022-07-28T18:15:08.625Z,94712.97
2022-07-28T18:18:18.878Z,94725.22
2022-07-28T18:21:27.671Z,94724.81
2022-07-28T18:24:37.442Z,94722.34
2022-07-28T18:27:47.882Z,94724.38
2022-07-28T18:30:56.398Z,94732.78
2022-07-28T18:34:08.108Z,94732.09
2022-07-28T18:37:16.556Z,94734.88
2022-07-28T18:40:24.953Z,94738.16
2022-07-28T18:43:33.414Z,94737.03
2022-07-28T18:46:41.902Z,94731.59
2022-07-28T18:49:51.732Z,94737.63
2022-07-28T18:53:01.029Z,94741.88
2022-07-28T18:56:10.299Z,94741.00
2022-07-28T18:59:19.144Z,94731.47
2022-07-28T19:02:28.162Z,94725.00
2022-07-28T19:05:41.721Z,94719.50
2022-07-28T19:08:53.946Z,94721.25
2022-07-28T19:12:03.434Z,94726.09
2022-07-28T19:15:12.099Z,94732.41
2022-07-28T19:18:22.265Z,94734.88
2022-07-28T19:21:32.443Z,94732.31
2022-07-28T19:24:41.512Z,94734.09
2022-07-28T19:27:50.047Z,94731.38
2022-07-28T19:31:10.441Z,94736.06
2022-07-28T19:34:19.762Z,94735.78
2022-07-28T19:37:29.409Z,94741.59
2022-07-28T19:40:38.555Z,94741.03
2022-07-28T19:43:47.786Z,94743.50
2022-07-28T19:46:57.838Z,94742.38
2022-07-28T19:50:08.299Z,94746.75
2022-07-28T19:53:18.999Z,94749.56
2022-07-28T19:56:31.527Z,94750.44
2022-07-28T19:59:41.121Z,94754.06
2022-07-28T20:02:53.395Z,94756.38
2022-07-28T20:06:04.932Z,94759.63
2022-07-28T20:09:17.281Z,94764.41
2022-07-28T20:12:32.913Z,94762.22
2022-07-28T20:15:43.611Z,94756.84
2022-07-28T20:18:53.342Z,94767.34
2022-07-28T20:22:02.109Z,94770.09
2022-07-28T20:25:13.293Z,94783.31
2022-07-28T20:28:24.459Z,94778.88
2022-07-28T20:31:36.903Z,94784.03
2022-07-28T20:34:47.820Z,94792.56
2022-07-28T20:38:13.293Z,94793.38
2022-07-28T20:41:23.282Z,94789.97
2022-07-28T20:44:34.637Z,94785.75
2022-07-28T20:47:44.645Z,94788.91
2022-07-28T20:50:54.476Z,94795.59
2022-07-28T20:54:04.125Z,94789.03
2022-07-28T20:57:13.755Z,94799.19
2022-07-28T21:00:24.132Z,94805.50
2022-07-28T21:03:34.549Z,94812.78
2022-07-28T21:06:51.500Z,94817.91
2022-07-28T21:10:01.566Z,94819.09
2022-07-28T21:13:12.393Z,94822.56
2022-07-28T21:16:21.620Z,94830.72
2022-07-28T21:19:31.057Z,94844.66
2022-07-28T21:22:39.981Z,94855.16
2022-07-28T21:25:51.450Z,94862.44
2022-07-28T21:32:27.696Z,94873.22
2022-07-28T21:35:37.799Z,94887.13
2022-07-28T21:38:47.434Z,94911.41
2022-07-28T21:41:56.548Z,94909.88
2022-07-28T21:45:11.126Z,94896.78
2022-07-28T21:48:23.331Z,94925.25
2022-07-28T21:51:31.892Z,94927.97
2022-07-28T21:54:40.405Z,94924.13
2022-07-28T21:57:49.517Z,94926.81
2022-07-28T22:01:02.587Z,94942.22
2022-07-28T22:04:11.564Z,94945.69
2022-07-28T22:07:20.245Z,94939.19
2022-07-28T22:10:30.100Z,94944.56
2022-07-28T22:13:38.735Z,94952.66
2022-07-28T22:16:50.779Z,94953.44
2022-07-28T22:19:59.989Z,94965.75
2022-07-28T22:23:19.964Z,94958.03
2022-07-28T22:26:37.040Z,94963.03
2022-07-28T22:29:50.026Z,94963.03
2022-07-28T22:33:02.583Z,94965.72
2022-07-28T22:36:11.200Z,94958.44
2022-07-28T22:39:19.704Z,94960.75
2022-07-28T22:42:29.795Z,94965.34
2022-07-28T22:45:49.656Z,94962.66
2022-07-28T22:49:01.301Z,94972.69
2022-07-28T22:52:09.856Z,94972.28
2022-07-28T22:55:18.288Z,94982.69
2022-07-28T22:58:27.235Z,94980.78
2022-07-28T23:01:36.753Z,94985.75
2022-07-28T23:04:51.382Z,94978.84
2022-07-28T23:08:00.105Z,94968.44
2022-07-28T23:11:08.681Z,94960.38
2022-07-28T23:14:17.583Z,94957.28
2022-07-28T23:17:26.319Z,94953.06
2022-07-28T23:20:36.128Z,94949.97
2022-07-28T23:23:44.426Z,94952.66
2022-07-28T23:26:52.772Z,94942.28
2022-07-28T23:30:02.741Z,94951.53
2022-07-28T23:33:54.224Z,94944.16
2022-07-28T23:36:41.073Z,94946.47
2022-07-28T23:39:49.630Z,94946.84
2022-07-28T23:42:57.863Z,94944.53
2022-07-28T23:46:06.825Z,94946.47
2022-07-28T23:49:18.388Z,94942.25
2022-07-28T23:52:28.313Z,94940.31
2022-07-28T23:55:36.562Z,94954.91
2022-07-28T23:58:46.047Z,94946.06
